sensor_id;sensor_type;location;lat;lon;timestamp;P1;P2;P0
47079;PMS5003;33067;49.296;14.470;2022-12-18T00:01:21;114;100;
47079;PMS5003;33067;49.296;14.470;2022-12-18T00:03:45;107;90;
47079;PMS5003;33067;49.296;14.470;2022-12-18T00:06:11;105;94;
47079;PMS5003;33067;49.296;14.470;2022-12-18T00:08:37;109;93;
47079;PMS5003;33067;49.296;14.470;2022-12-18T00:11:03;112;102;
47079;PMS5003;33067;49.296;14.470;2022-12-18T00:13:27;116;104;
47079;PMS5003;33067;49.296;14.470;2022-12-18T00:15:53;120;107;
47079;PMS5003;33067;49.296;14.470;2022-12-18T00:18:18;106;93;
47079;PMS5003;33067;49.296;14.470;2022-12-18T00:20:44;119;96;
47079;PMS5003;33067;49.296;14.470;2022-12-18T00:23:09;118;92;
47079;PMS5003;33067;49.296;14.470;2022-12-18T00:25:35;116;96;
47079;PMS5003;33067;49.296;14.470;2022-12-18T00:28:00;99;90;
47079;PMS5003;33067;49.296;14.470;2022-12-18T00:30:25;116;90;
47079;PMS5003;33067;49.296;14.470;2022-12-18T00:32:51;105;96;
47079;PMS5003;33067;49.296;14.470;2022-12-18T00:35:16;100;83;
47079;PMS5003;33067;49.296;14.470;2022-12-18T00:37:41;102;82;
47079;PMS5003;33067;49.296;14.470;2022-12-18T00:40:08;102;89;
47079;PMS5003;33067;49.296;14.470;2022-12-18T00:42:34;99;90;
47079;PMS5003;33067;49.296;14.470;2022-12-18T00:44:59;98;91;
47079;PMS5003;33067;49.296;14.470;2022-12-18T00:47:25;108;86;
47079;PMS5003;33067;49.296;14.470;2022-12-18T00:49:50;102;85;
47079;PMS5003;33067;49.296;14.470;2022-12-18T00:52:16;82;75;
47079;PMS5003;33067;49.296;14.470;2022-12-18T00:54:41;93;80;
47079;PMS5003;33067;49.296;14.470;2022-12-18T00:57:07;94;83;
47079;PMS5003;33067;49.296;14.470;2022-12-18T00:59:33;61;57;
47079;PMS5003;33067;49.296;14.470;2022-12-18T01:01:58;60;57;
47079;PMS5003;33067;49.296;14.470;2022-12-18T01:04:23;73;64;
47079;PMS5003;33067;49.296;14.470;2022-12-18T01:06:49;71;62;
47079;PMS5003;33067;49.296;14.470;2022-12-18T01:09:14;57;50;
47079;PMS5003;33067;49.296;14.470;2022-12-18T01:11:40;82;71;
47079;PMS5003;33067;49.296;14.470;2022-12-18T01:14:05;89;86;
47079;PMS5003;33067;49.296;14.470;2022-12-18T01:16:30;92;83;
47079;PMS5003;33067;49.296;14.470;2022-12-18T01:18:55;83;75;
47079;PMS5003;33067;49.296;14.470;2022-12-18T01:21:21;102;92;
47079;PMS5003;33067;49.296;14.470;2022-12-18T01:23:47;93;79;
47079;PMS5003;33067;49.296;14.470;2022-12-18T01:26:13;90;77;
47079;PMS5003;33067;49.296;14.470;2022-12-18T01:28:38;92;82;
47079;PMS5003;33067;49.296;14.470;2022-12-18T01:31:11;94;75;
47079;PMS5003;33067;49.296;14.470;2022-12-18T01:33:28;89;83;
47079;PMS5003;33067;49.296;14.470;2022-12-18T01:35:55;84;70;
47079;PMS5003;33067;49.296;14.470;2022-12-18T01:38:19;92;85;
47079;PMS5003;33067;49.296;14.470;2022-12-18T01:40:44;86;81;
47079;PMS5003;33067;49.296;14.470;2022-12-18T01:43:09;92;86;
47079;PMS5003;33067;49.296;14.470;2022-12-18T01:45:35;102;86;
47079;PMS5003;33067;49.296;14.470;2022-12-18T01:48:01;107;88;
47079;PMS5003;33067;49.296;14.470;2022-12-18T01:50:28;85;78;
47079;PMS5003;33067;49.296;14.470;2022-12-18T01:52:53;99;78;
47079;PMS5003;33067;49.296;14.470;2022-12-18T01:55:19;89;79;
47079;PMS5003;33067;49.296;14.470;2022-12-18T01:57:44;91;78;
47079;PMS5003;33067;49.296;14.470;2022-12-18T02:00:11;87;74;
47079;PMS5003;33067;49.296;14.470;2022-12-18T02:02:34;103;88;
47079;PMS5003;33067;49.296;14.470;2022-12-18T02:04:59;100;87;
47079;PMS5003;33067;49.296;14.470;2022-12-18T02:07:26;92;85;
47079;PMS5003;33067;49.296;14.470;2022-12-18T02:09:50;97;82;
47079;PMS5003;33067;49.296;14.470;2022-12-18T02:12:16;99;84;
47079;PMS5003;33067;49.296;14.470;2022-12-18T02:14:43;83;72;
47079;PMS5003;33067;49.296;14.470;2022-12-18T02:17:07;87;75;
47079;PMS5003;33067;49.296;14.470;2022-12-18T02:22:01;83;75;
47079;PMS5003;33067;49.296;14.470;2022-12-18T02:24:27;96;80;
47079;PMS5003;33067;49.296;14.470;2022-12-18T02:26:49;87;81;
47079;PMS5003;33067;49.296;14.470;2022-12-18T02:29:15;97;80;
47079;PMS5003;33067;49.296;14.470;2022-12-18T02:31:40;89;80;
47079;PMS5003;33067;49.296;14.470;2022-12-18T02:34:05;99;84;
47079;PMS5003;33067;49.296;14.470;2022-12-18T02:36:31;90;83;
47079;PMS5003;33067;49.296;14.470;2022-12-18T02:38:56;84;83;
47079;PMS5003;33067;49.296;14.470;2022-12-18T02:41:21;90;83;
47079;PMS5003;33067;49.296;14.470;2022-12-18T02:43:47;89;74;
47079;PMS5003;33067;49.296;14.470;2022-12-18T02:48:38;96;75;
47079;PMS5003;33067;49.296;14.470;2022-12-18T02:51:04;103;90;
47079;PMS5003;33067;49.296;14.470;2022-12-18T02:53:30;100;81;
47079;PMS5003;33067;49.296;14.470;2022-12-18T02:55:57;97;85;
47079;PMS5003;33067;49.296;14.470;2022-12-18T02:58:19;89;83;
47079;PMS5003;33067;49.296;14.470;2022-12-18T03:00:47;109;93;
47079;PMS5003;33067;49.296;14.470;2022-12-18T03:03:11;79;66;
47079;PMS5003;33067;49.296;14.470;2022-12-18T03:05:36;68;64;
47079;PMS5003;33067;49.296;14.470;2022-12-18T03:08:01;78;72;
47079;PMS5003;33067;49.296;14.470;2022-12-18T03:13:00;73;58;
47079;PMS5003;33067;49.296;14.470;2022-12-18T03:15:26;73;61;
47079;PMS5003;33067;49.296;14.470;2022-12-18T03:17:51;73;57;
47079;PMS5003;33067;49.296;14.470;2022-12-18T03:20:17;78;66;
47079;PMS5003;33067;49.296;14.470;2022-12-18T03:22:41;75;69;
47079;PMS5003;33067;49.296;14.470;2022-12-18T03:25:07;66;54;
47079;PMS5003;33067;49.296;14.470;2022-12-18T03:27:32;69;55;
47079;PMS5003;33067;49.296;14.470;2022-12-18T03:29:59;62;50;
47079;PMS5003;33067;49.296;14.470;2022-12-18T03:32:23;81;69;
47079;PMS5003;33067;49.296;14.470;2022-12-18T03:34:48;75;63;
47079;PMS5003;33067;49.296;14.470;2022-12-18T03:37:13;85;70;
47079;PMS5003;33067;49.296;14.470;2022-12-18T03:39:39;86;75;
47079;PMS5003;33067;49.296;14.470;2022-12-18T03:42:05;67;51;
47079;PMS5003;33067;49.296;14.470;2022-12-18T03:44:31;74;65;
47079;PMS5003;33067;49.296;14.470;2022-12-18T03:46:57;96;78;
47079;PMS5003;33067;49.296;14.470;2022-12-18T03:49:23;74;71;
47079;PMS5003;33067;49.296;14.470;2022-12-18T03:51:48;83;78;
47079;PMS5003;33067;49.296;14.470;2022-12-18T03:54:12;79;68;
47079;PMS5003;33067;49.296;14.470;2022-12-18T03:56:38;93;71;
47079;PMS5003;33067;49.296;14.470;2022-12-18T03:59:02;88;78;
47079;PMS5003;33067;49.296;14.470;2022-12-18T04:01:29;65;62;
47079;PMS5003;33067;49.296;14.470;2022-12-18T04:03:52;93;85;
47079;PMS5003;33067;49.296;14.470;2022-12-18T04:06:18;83;69;
47079;PMS5003;33067;49.296;14.470;2022-12-18T04:08:44;91;73;
47079;PMS5003;33067;49.296;14.470;2022-12-18T04:11:09;82;69;
47079;PMS5003;33067;49.296;14.470;2022-12-18T04:13:35;78;67;
47079;PMS5003;33067;49.296;14.470;2022-12-18T04:16:01;81;69;
47079;PMS5003;33067;49.296;14.470;2022-12-18T04:18:26;79;70;
47079;PMS5003;33067;49.296;14.470;2022-12-18T04:20:51;80;69;
47079;PMS5003;33067;49.296;14.470;2022-12-18T04:23:17;73;69;
47079;PMS5003;33067;49.296;14.470;2022-12-18T04:25:42;85;73;
47079;PMS5003;33067;49.296;14.470;2022-12-18T04:28:08;73;68;
47079;PMS5003;33067;49.296;14.470;2022-12-18T04:30:33;87;73;
47079;PMS5003;33067;49.296;14.470;2022-12-18T04:32:59;89;77;
47079;PMS5003;33067;49.296;14.470;2022-12-18T04:35:24;85;74;
47079;PMS5003;33067;49.296;14.470;2022-12-18T04:37:49;95;76;
47079;PMS5003;33067;49.296;14.470;2022-12-18T04:40:15;96;75;
47079;PMS5003;33067;49.296;14.470;2022-12-18T04:42:40;90;65;
47079;PMS5003;33067;49.296;14.470;2022-12-18T04:45:06;81;71;
47079;PMS5003;33067;49.296;14.470;2022-12-18T04:47:31;85;73;
47079;PMS5003;33067;49.296;14.470;2022-12-18T04:49:57;82;72;
47079;PMS5003;33067;49.296;14.470;2022-12-18T04:52:23;88;72;
47079;PMS5003;33067;49.296;14.470;2022-12-18T04:54:48;82;69;
47079;PMS5003;33067;49.296;14.470;2022-12-18T04:57:13;83;67;
47079;PMS5003;33067;49.296;14.470;2022-12-18T04:59:39;85;75;
47079;PMS5003;33067;49.296;14.470;2022-12-18T05:02:05;73;64;
47079;PMS5003;33067;49.296;14.470;2022-12-18T05:04:30;88;71;
47079;PMS5003;33067;49.296;14.470;2022-12-18T05:06:56;77;68;
47079;PMS5003;33067;49.296;14.470;2022-12-18T05:09:22;65;59;
47079;PMS5003;33067;49.296;14.470;2022-12-18T05:11:47;80;68;
47079;PMS5003;33067;49.296;14.470;2022-12-18T05:14:12;70;58;
47079;PMS5003;33067;49.296;14.470;2022-12-18T05:16:38;71;61;
47079;PMS5003;33067;49.296;14.470;2022-12-18T05:19:03;69;58;
47079;PMS5003;33067;49.296;14.470;2022-12-18T05:21:28;65;57;
47079;PMS5003;33067;49.296;14.470;2022-12-18T05:23:54;69;60;
47079;PMS5003;33067;49.296;14.470;2022-12-18T05:26:19;70;61;
47079;PMS5003;33067;49.296;14.470;2022-12-18T05:28:45;76;67;
47079;PMS5003;33067;49.296;14.470;2022-12-18T05:31:11;64;58;
47079;PMS5003;33067;49.296;14.470;2022-12-18T05:33:36;73;66;
47079;PMS5003;33067;49.296;14.470;2022-12-18T05:36:02;67;58;
47079;PMS5003;33067;49.296;14.470;2022-12-18T05:38:28;91;68;
47079;PMS5003;33067;49.296;14.470;2022-12-18T05:40:52;58;53;
47079;PMS5003;33067;49.296;14.470;2022-12-18T05:43:18;64;61;
47079;PMS5003;33067;49.296;14.470;2022-12-18T05:45:43;60;48;
47079;PMS5003;33067;49.296;14.470;2022-12-18T05:48:09;64;60;
47079;PMS5003;33067;49.296;14.470;2022-12-18T05:50:35;67;58;
47079;PMS5003;33067;49.296;14.470;2022-12-18T05:53:00;78;61;
47079;PMS5003;33067;49.296;14.470;2022-12-18T05:55:25;55;48;
47079;PMS5003;33067;49.296;14.470;2022-12-18T05:57:51;66;53;
47079;PMS5003;33067;49.296;14.470;2022-12-18T06:00:17;91;73;
47079;PMS5003;33067;49.296;14.470;2022-12-18T06:02:42;75;64;
47079;PMS5003;33067;49.296;14.470;2022-12-18T06:05:08;80;67;
47079;PMS5003;33067;49.296;14.470;2022-12-18T06:07:33;60;55;
47079;PMS5003;33067;49.296;14.470;2022-12-18T06:09:58;79;67;
47079;PMS5003;33067;49.296;14.470;2022-12-18T06:12:23;66;57;
47079;PMS5003;33067;49.296;14.470;2022-12-18T06:14:49;56;53;
47079;PMS5003;33067;49.296;14.470;2022-12-18T06:17:14;66;59;
47079;PMS5003;33067;49.296;14.470;2022-12-18T06:19:39;70;58;
47079;PMS5003;33067;49.296;14.470;2022-12-18T06:22:04;75;59;
47079;PMS5003;33067;49.296;14.470;2022-12-18T06:24:30;60;54;
47079;PMS5003;33067;49.296;14.470;2022-12-18T06:26:56;67;50;
47079;PMS5003;33067;49.296;14.470;2022-12-18T06:29:21;69;64;
47079;PMS5003;33067;49.296;14.470;2022-12-18T06:31:46;58;50;
47079;PMS5003;33067;49.296;14.470;2022-12-18T06:34:12;60;49;
47079;PMS5003;33067;49.296;14.470;2022-12-18T06:36:37;66;53;
47079;PMS5003;33067;49.296;14.470;2022-12-18T06:39:03;48;40;
47079;PMS5003;33067;49.296;14.470;2022-12-18T06:41:29;50;43;
47079;PMS5003;33067;49.296;14.470;2022-12-18T06:43:54;49;42;
47079;PMS5003;33067;49.296;14.470;2022-12-18T06:46:19;64;52;
47079;PMS5003;33067;49.296;14.470;2022-12-18T06:48:46;59;49;
47079;PMS5003;33067;49.296;14.470;2022-12-18T06:51:10;47;41;
47079;PMS5003;33067;49.296;14.470;2022-12-18T06:53:36;59;53;
47079;PMS5003;33067;49.296;14.470;2022-12-18T06:56:02;67;53;
47079;PMS5003;33067;49.296;14.470;2022-12-18T06:58:27;59;47;
47079;PMS5003;33067;49.296;14.470;2022-12-18T07:00:52;55;46;
47079;PMS5003;33067;49.296;14.470;2022-12-18T07:03:18;53;47;
47079;PMS5003;33067;49.296;14.470;2022-12-18T07:05:43;54;45;
47079;PMS5003;33067;49.296;14.470;2022-12-18T07:08:09;67;55;
47079;PMS5003;33067;49.296;14.470;2022-12-18T07:12:59;54;47;
47079;PMS5003;33067;49.296;14.470;2022-12-18T07:15:25;49;44;
47079;PMS5003;33067;49.296;14.470;2022-12-18T07:17:50;66;51;
47079;PMS5003;33067;49.296;14.470;2022-12-18T07:20:15;64;56;
47079;PMS5003;33067;49.296;14.470;2022-12-18T07:22:41;47;44;
47079;PMS5003;33067;49.296;14.470;2022-12-18T07:25:07;57;51;
47079;PMS5003;33067;49.296;14.470;2022-12-18T07:27:32;49;42;
47079;PMS5003;33067;49.296;14.470;2022-12-18T07:29:58;55;46;
47079;PMS5003;33067;49.296;14.470;2022-12-18T07:32:24;55;49;
47079;PMS5003;33067;49.296;14.470;2022-12-18T07:34:49;66;46;
47079;PMS5003;33067;49.296;14.470;2022-12-18T07:37:15;64;57;
47079;PMS5003;33067;49.296;14.470;2022-12-18T07:39:40;67;61;
47079;PMS5003;33067;49.296;14.470;2022-12-18T07:42:06;57;45;
47079;PMS5003;33067;49.296;14.470;2022-12-18T07:44:31;57;51;
47079;PMS5003;33067;49.296;14.470;2022-12-18T07:46:56;52;42;
47079;PMS5003;33067;49.296;14.470;2022-12-18T07:49:21;55;52;
47079;PMS5003;33067;49.296;14.470;2022-12-18T07:51:46;58;48;
47079;PMS5003;33067;49.296;14.470;2022-12-18T07:54:12;43;40;
47079;PMS5003;33067;49.296;14.470;2022-12-18T07:56:38;64;45;
47079;PMS5003;33067;49.296;14.470;2022-12-18T07:59:03;64;55;
47079;PMS5003;33067;49.296;14.470;2022-12-18T08:01:28;52;44;
47079;PMS5003;33067;49.296;14.470;2022-12-18T08:03:54;49;42;
47079;PMS5003;33067;49.296;14.470;2022-12-18T08:06:20;61;55;
47079;PMS5003;33067;49.296;14.470;2022-12-18T08:08:45;52;48;
47079;PMS5003;33067;49.296;14.470;2022-12-18T08:11:11;50;46;
47079;PMS5003;33067;49.296;14.470;2022-12-18T08:13:36;53;46;
47079;PMS5003;33067;49.296;14.470;2022-12-18T08:16:03;58;53;
47079;PMS5003;33067;49.296;14.470;2022-12-18T08:18:27;53;49;
47079;PMS5003;33067;49.296;14.470;2022-12-18T08:20:53;53;46;
47079;PMS5003;33067;49.296;14.470;2022-12-18T08:23:19;62;55;
47079;PMS5003;33067;49.296;14.470;2022-12-18T08:25:44;56;50;
47079;PMS5003;33067;49.296;14.470;2022-12-18T08:28:09;75;62;
47079;PMS5003;33067;49.296;14.470;2022-12-18T08:30:35;67;54;
47079;PMS5003;33067;49.296;14.470;2022-12-18T08:33:00;48;44;
47079;PMS5003;33067;49.296;14.470;2022-12-18T08:35:25;50;42;
47079;PMS5003;33067;49.296;14.470;2022-12-18T08:37:51;65;60;
47079;PMS5003;33067;49.296;14.470;2022-12-18T08:40:16;58;52;
47079;PMS5003;33067;49.296;14.470;2022-12-18T08:42:42;68;59;
47079;PMS5003;33067;49.296;14.470;2022-12-18T08:45:08;68;59;
47079;PMS5003;33067;49.296;14.470;2022-12-18T08:47:33;67;57;
47079;PMS5003;33067;49.296;14.470;2022-12-18T08:49:59;88;75;
47079;PMS5003;33067;49.296;14.470;2022-12-18T08:52:25;76;67;
47079;PMS5003;33067;49.296;14.470;2022-12-18T08:54:50;65;59;
47079;PMS5003;33067;49.296;14.470;2022-12-18T08:57:15;66;61;
47079;PMS5003;33067;49.296;14.470;2022-12-18T08:59:40;54;48;
47079;PMS5003;33067;49.296;14.470;2022-12-18T09:02:07;58;48;
47079;PMS5003;33067;49.296;14.470;2022-12-18T09:04:31;70;63;
47079;PMS5003;33067;49.296;14.470;2022-12-18T09:06:57;73;64;
47079;PMS5003;33067;49.296;14.470;2022-12-18T09:09:23;64;61;
47079;PMS5003;33067;49.296;14.470;2022-12-18T09:11:48;79;64;
47079;PMS5003;33067;49.296;14.470;2022-12-18T09:14:13;91;76;
47079;PMS5003;33067;49.296;14.470;2022-12-18T09:16:39;84;67;
47079;PMS5003;33067;49.296;14.470;2022-12-18T09:19:04;99;87;
47079;PMS5003;33067;49.296;14.470;2022-12-18T09:21:30;78;68;
47079;PMS5003;33067;49.296;14.470;2022-12-18T09:23:55;93;78;
47079;PMS5003;33067;49.296;14.470;2022-12-18T09:26:20;91;81;
47079;PMS5003;33067;49.296;14.470;2022-12-18T09:28:46;111;98;
47079;PMS5003;33067;49.296;14.470;2022-12-18T09:31:12;93;77;
47079;PMS5003;33067;49.296;14.470;2022-12-18T09:33:37;109;91;
47079;PMS5003;33067;49.296;14.470;2022-12-18T09:36:03;94;88;
47079;PMS5003;33067;49.296;14.470;2022-12-18T09:38:27;104;86;
47079;PMS5003;33067;49.296;14.470;2022-12-18T09:40:53;68;62;
47079;PMS5003;33067;49.296;14.470;2022-12-18T09:43:20;105;91;
47079;PMS5003;33067;49.296;14.470;2022-12-18T09:45:44;110;96;
47079;PMS5003;33067;49.296;14.470;2022-12-18T09:48:09;78;68;
47079;PMS5003;33067;49.296;14.470;2022-12-18T09:50:35;81;69;
47079;PMS5003;33067;49.296;14.470;2022-12-18T09:53:02;116;100;
47079;PMS5003;33067;49.296;14.470;2022-12-18T09:55:27;183;155;
47079;PMS5003;33067;49.296;14.470;2022-12-18T09:57:51;87;75;
47079;PMS5003;33067;49.296;14.470;2022-12-18T10:00:18;87;84;
47079;PMS5003;33067;49.296;14.470;2022-12-18T10:02:42;87;80;
47079;PMS5003;33067;49.296;14.470;2022-12-18T10:05:09;91;73;
47079;PMS5003;33067;49.296;14.470;2022-12-18T10:07:35;96;84;
47079;PMS5003;33067;49.296;14.470;2022-12-18T10:09:59;147;124;
47079;PMS5003;33067;49.296;14.470;2022-12-18T10:12:24;110;92;
47079;PMS5003;33067;49.296;14.470;2022-12-18T10:14:51;119;101;
47079;PMS5003;33067;49.296;14.470;2022-12-18T10:17:16;134;123;
47079;PMS5003;33067;49.296;14.470;2022-12-18T10:19:40;186;166;
47079;PMS5003;33067;49.296;14.470;2022-12-18T10:22:09;82;72;
47079;PMS5003;33067;49.296;14.470;2022-12-18T10:24:32;77;68;
47079;PMS5003;33067;49.296;14.470;2022-12-18T10:26:56;72;62;
47079;PMS5003;33067;49.296;14.470;2022-12-18T10:29:22;75;55;
47079;PMS5003;33067;49.296;14.470;2022-12-18T10:31:47;148;123;
47079;PMS5003;33067;49.296;14.470;2022-12-18T10:34:13;124;105;
47079;PMS5003;33067;49.296;14.470;2022-12-18T10:36:39;95;91;
47079;PMS5003;33067;49.296;14.470;2022-12-18T10:41:30;82;73;
47079;PMS5003;33067;49.296;14.470;2022-12-18T10:46:21;83;71;
47079;PMS5003;33067;49.296;14.470;2022-12-18T10:48:48;86;76;
47079;PMS5003;33067;49.296;14.470;2022-12-18T10:51:18;85;76;
47079;PMS5003;33067;49.296;14.470;2022-12-18T10:53:38;86;73;
47079;PMS5003;33067;49.296;14.470;2022-12-18T10:56:04;79;74;
47079;PMS5003;33067;49.296;14.470;2022-12-18T10:58:29;86;77;
47079;PMS5003;33067;49.296;14.470;2022-12-18T11:05:45;93;81;
47079;PMS5003;33067;49.296;14.470;2022-12-18T11:08:19;78;73;
47079;PMS5003;33067;49.296;14.470;2022-12-18T11:10:36;78;65;
47079;PMS5003;33067;49.296;14.470;2022-12-18T11:15:27;97;79;
47079;PMS5003;33067;49.296;14.470;2022-12-18T11:17:51;99;92;
47079;PMS5003;33067;49.296;14.470;2022-12-18T11:20:21;83;78;
47079;PMS5003;33067;49.296;14.470;2022-12-18T11:22:41;105;98;
47079;PMS5003;33067;49.296;14.470;2022-12-18T11:25:18;89;79;
47079;PMS5003;33067;49.296;14.470;2022-12-18T11:27:32;102;85;
47079;PMS5003;33067;49.296;14.470;2022-12-18T11:32:25;91;88;
47079;PMS5003;33067;49.296;14.470;2022-12-18T11:34:48;142;120;
47079;PMS5003;33067;49.296;14.470;2022-12-18T11:37:13;105;83;
47079;PMS5003;33067;49.296;14.470;2022-12-18T11:39:39;165;139;
47079;PMS5003;33067;49.296;14.470;2022-12-18T11:42:04;195;157;
47079;PMS5003;33067;49.296;14.470;2022-12-18T11:44:31;75;64;
47079;PMS5003;33067;49.296;14.470;2022-12-18T11:46:56;89;84;
47079;PMS5003;33067;49.296;14.470;2022-12-18T11:49:22;99;87;
47079;PMS5003;33067;49.296;14.470;2022-12-18T11:51:48;182;144;
47079;PMS5003;33067;49.296;14.470;2022-12-18T11:54:12;107;89;
47079;PMS5003;33067;49.296;14.470;2022-12-18T11:56:39;69;59;
47079;PMS5003;33067;49.296;14.470;2022-12-18T11:59:06;70;62;
47079;PMS5003;33067;49.296;14.470;2022-12-18T12:01:32;51;49;
47079;PMS5003;33067;49.296;14.470;2022-12-18T12:06:20;60;51;
47079;PMS5003;33067;49.296;14.470;2022-12-18T12:08:48;60;53;
47079;PMS5003;33067;49.296;14.470;2022-12-18T12:11:11;60;53;
47079;PMS5003;33067;49.296;14.470;2022-12-18T12:13:39;67;59;
47079;PMS5003;33067;49.296;14.470;2022-12-18T12:16:04;75;65;
47079;PMS5003;33067;49.296;14.470;2022-12-18T12:18:28;71;58;
47079;PMS5003;33067;49.296;14.470;2022-12-18T12:20:53;67;61;
47079;PMS5003;33067;49.296;14.470;2022-12-18T12:23:20;80;69;
47079;PMS5003;33067;49.296;14.470;2022-12-18T12:25:44;74;68;
47079;PMS5003;33067;49.296;14.470;2022-12-18T12:28:12;75;65;
47079;PMS5003;33067;49.296;14.470;2022-12-18T12:30:35;67;60;
47079;PMS5003;33067;49.296;14.470;2022-12-18T12:33:02;79;69;
47079;PMS5003;33067;49.296;14.470;2022-12-18T12:35:29;79;65;
47079;PMS5003;33067;49.296;14.470;2022-12-18T12:37:53;78;71;
47079;PMS5003;33067;49.296;14.470;2022-12-18T12:40:17;82;66;
47079;PMS5003;33067;49.296;14.470;2022-12-18T12:42:41;76;61;
47079;PMS5003;33067;49.296;14.470;2022-12-18T12:45:06;69;61;
47079;PMS5003;33067;49.296;14.470;2022-12-18T12:47:32;76;65;
47079;PMS5003;33067;49.296;14.470;2022-12-18T12:49:56;68;62;
47079;PMS5003;33067;49.296;14.470;2022-12-18T12:52:25;77;58;
47079;PMS5003;33067;49.296;14.470;2022-12-18T12:54:47;80;70;
47079;PMS5003;33067;49.296;14.470;2022-12-18T12:57:14;77;67;
47079;PMS5003;33067;49.296;14.470;2022-12-18T12:59:40;76;73;
47079;PMS5003;33067;49.296;14.470;2022-12-18T13:02:04;75;68;
47079;PMS5003;33067;49.296;14.470;2022-12-18T13:04:30;69;66;
47079;PMS5003;33067;49.296;14.470;2022-12-18T13:06:56;71;66;
47079;PMS5003;33067;49.296;14.470;2022-12-18T13:09:19;87;68;
47079;PMS5003;33067;49.296;14.470;2022-12-18T13:11:45;81;70;
47079;PMS5003;33067;49.296;14.470;2022-12-18T13:16:36;86;74;
47079;PMS5003;33067;49.296;14.470;2022-12-18T13:19:01;72;68;
47079;PMS5003;33067;49.296;14.470;2022-12-18T13:21:27;63;56;
47079;PMS5003;33067;49.296;14.470;2022-12-18T13:23:53;63;60;
47079;PMS5003;33067;49.296;14.470;2022-12-18T13:28:50;59;53;
47079;PMS5003;33067;49.296;14.470;2022-12-18T13:31:09;67;63;
47079;PMS5003;33067;49.296;14.470;2022-12-18T13:33:37;69;59;
47079;PMS5003;33067;49.296;14.470;2022-12-18T13:36:01;82;73;
47079;PMS5003;33067;49.296;14.470;2022-12-18T13:38:32;82;74;
47079;PMS5003;33067;49.296;14.470;2022-12-18T13:40:53;90;74;
47079;PMS5003;33067;49.296;14.470;2022-12-18T13:45:44;79;72;
47079;PMS5003;33067;49.296;14.470;2022-12-18T13:50:32;80;72;
47079;PMS5003;33067;49.296;14.470;2022-12-18T13:52:58;90;76;
47079;PMS5003;33067;49.296;14.470;2022-12-18T13:55:24;82;76;
47079;PMS5003;33067;49.296;14.470;2022-12-18T13:57:49;80;73;
47079;PMS5003;33067;49.296;14.470;2022-12-18T14:00:23;75;59;
47079;PMS5003;33067;49.296;14.470;2022-12-18T14:02:44;71;61;
47079;PMS5003;33067;49.296;14.470;2022-12-18T14:07:32;73;61;
47079;PMS5003;33067;49.296;14.470;2022-12-18T14:09:59;76;69;
47079;PMS5003;33067;49.296;14.470;2022-12-18T14:12:24;88;69;
47079;PMS5003;33067;49.296;14.470;2022-12-18T14:14:49;84;73;
47079;PMS5003;33067;49.296;14.470;2022-12-18T14:17:14;68;64;
47079;PMS5003;33067;49.296;14.470;2022-12-18T14:19:41;44;44;
47079;PMS5003;33067;49.296;14.470;2022-12-18T14:22:09;71;54;
47079;PMS5003;33067;49.296;14.470;2022-12-18T14:24:30;69;65;
47079;PMS5003;33067;49.296;14.470;2022-12-18T14:26:56;68;62;
47079;PMS5003;33067;49.296;14.470;2022-12-18T14:29:23;75;67;
47079;PMS5003;33067;49.296;14.470;2022-12-18T14:31:50;76;67;
47079;PMS5003;33067;49.296;14.470;2022-12-18T14:34:15;73;66;
47079;PMS5003;33067;49.296;14.470;2022-12-18T14:36:38;67;57;
47079;PMS5003;33067;49.296;14.470;2022-12-18T14:39:03;76;65;
47079;PMS5003;33067;49.296;14.470;2022-12-18T14:41:29;64;57;
47079;PMS5003;33067;49.296;14.470;2022-12-18T14:43:54;73;65;
47079;PMS5003;33067;49.296;14.470;2022-12-18T14:46:26;86;76;
47079;PMS5003;33067;49.296;14.470;2022-12-18T14:48:45;70;63;
47079;PMS5003;33067;49.296;14.470;2022-12-18T14:51:15;78;67;
47079;PMS5003;33067;49.296;14.470;2022-12-18T14:53:37;65;64;
47079;PMS5003;33067;49.296;14.470;2022-12-18T14:56:02;73;65;
47079;PMS5003;33067;49.296;14.470;2022-12-18T14:58:27;80;68;
47079;PMS5003;33067;49.296;14.470;2022-12-18T15:00:52;81;73;
47079;PMS5003;33067;49.296;14.470;2022-12-18T15:03:18;74;59;
47079;PMS5003;33067;49.296;14.470;2022-12-18T15:05:47;69;62;
47079;PMS5003;33067;49.296;14.470;2022-12-18T15:10:34;78;62;
47079;PMS5003;33067;49.296;14.470;2022-12-18T15:13:22;63;46;
47079;PMS5003;33067;49.296;14.470;2022-12-18T15:20:16;64;62;
47079;PMS5003;33067;49.296;14.470;2022-12-18T15:22:41;61;53;
47079;PMS5003;33067;49.296;14.470;2022-12-18T15:27:32;72;61;
47079;PMS5003;33067;49.296;14.470;2022-12-18T15:30:01;55;53;
47079;PMS5003;33067;49.296;14.470;2022-12-18T15:32:22;52;46;
47079;PMS5003;33067;49.296;14.470;2022-12-18T15:34:47;79;70;
47079;PMS5003;33067;49.296;14.470;2022-12-18T15:37:13;66;60;
47079;PMS5003;33067;49.296;14.470;2022-12-18T15:39:38;81;68;
47079;PMS5003;33067;49.296;14.470;2022-12-18T15:42:04;68;65;
47079;PMS5003;33067;49.296;14.470;2022-12-18T15:44:29;69;60;
47079;PMS5003;33067;49.296;14.470;2022-12-18T15:46:55;66;62;
47079;PMS5003;33067;49.296;14.470;2022-12-18T15:49:20;66;62;
47079;PMS5003;33067;49.296;14.470;2022-12-18T15:51:46;73;58;
47079;PMS5003;33067;49.296;14.470;2022-12-18T15:54:11;75;65;
47079;PMS5003;33067;49.296;14.470;2022-12-18T15:56:36;71;68;
47079;PMS5003;33067;49.296;14.470;2022-12-18T15:59:04;77;67;
47079;PMS5003;33067;49.296;14.470;2022-12-18T16:01:29;67;57;
47079;PMS5003;33067;49.296;14.470;2022-12-18T16:03:53;67;56;
47079;PMS5003;33067;49.296;14.470;2022-12-18T16:06:19;59;51;
47079;PMS5003;33067;49.296;14.470;2022-12-18T16:08:45;59;50;
47079;PMS5003;33067;49.296;14.470;2022-12-18T16:11:11;62;52;
47079;PMS5003;33067;49.296;14.470;2022-12-18T16:13:36;56;47;
47079;PMS5003;33067;49.296;14.470;2022-12-18T16:16:01;44;40;
47079;PMS5003;33067;49.296;14.470;2022-12-18T16:18:26;45;39;
47079;PMS5003;33067;49.296;14.470;2022-12-18T16:20:52;39;38;
47079;PMS5003;33067;49.296;14.470;2022-12-18T16:23:17;55;48;
47079;PMS5003;33067;49.296;14.470;2022-12-18T16:25:42;57;39;
47079;PMS5003;33067;49.296;14.470;2022-12-18T16:28:08;52;45;
47079;PMS5003;33067;49.296;14.470;2022-12-18T16:30:33;48;43;
47079;PMS5003;33067;49.296;14.470;2022-12-18T16:32:58;52;45;
47079;PMS5003;33067;49.296;14.470;2022-12-18T16:35:24;51;48;